Time;durP1;ratioP1;P1;durP2;ratioP2;P2;SDS_P1;SDS_P2;PMS_P1;PMS_P2;Temp;Humidity;BMP_temperature;BMP_pressure;BME280_temperature;BME280_humidity;BME280_pressure;Samples;Min_cycle;Max_cycle;Signal;HPM_P1;HPM_P2
2023/12/02 00:02:11;;;;;;;5.20;2.37;;;;;;;-1.42;100.00;99518.91;5044874;28;20322;-73
2023/12/02 00:04:37;;;;;;;4.03;1.83;;;;;;;-1.41;100.00;99510.28;5052544;28;20604;-74
2023/12/02 00:07:04;;;;;;;3.80;2.23;;;;;;;-1.51;100.00;99519.38;5036938;28;20286;-72
2023/12/02 00:09:30;;;;;;;9.03;5.17;;;;;;;-1.59;100.00;99515.53;5048122;28;20202;-71
2023/12/02 00:11:57;;;;;;;6.07;2.33;;;;;;;-1.70;100.00;99522.78;5049450;28;20277;-74
2023/12/02 00:14:24;;;;;;;9.17;2.97;;;;;;;-1.80;100.00;99506.72;5040433;28;20578;-73
2023/12/02 00:16:50;;;;;;;4.20;1.87;;;;;;;-1.83;100.00;99519.53;5046975;28;20202;-71
2023/12/02 00:19:17;;;;;;;5.00;2.23;;;;;;;-1.90;100.00;99513.19;5030008;28;20615;-71
2023/12/02 00:21:43;;;;;;;1.40;1.30;;;;;;;-2.04;100.00;99509.91;5048231;28;20241;-71
2023/12/02 00:24:10;;;;;;;2.70;2.00;;;;;;;-2.11;100.00;99520.78;5040253;28;20218;-71
2023/12/02 00:26:36;;;;;;;9.47;5.00;;;;;;;-2.18;100.00;99508.34;5030998;28;20740;-69
2023/12/02 00:29:02;;;;;;;4.50;2.60;;;;;;;-2.25;100.00;99517.53;5046870;28;20611;-70
2023/12/02 00:31:29;;;;;;;2.43;1.47;;;;;;;-2.33;100.00;99513.66;5040106;28;20215;-72
2023/12/02 00:33:57;;;;;;;4.03;2.17;;;;;;;-2.45;100.00;99520.81;5046255;28;20222;-71
2023/12/02 00:36:23;;;;;;;2.80;2.23;;;;;;;-2.54;100.00;99522.94;5048113;28;20215;-70
2023/12/02 00:38:51;;;;;;;5.53;2.07;;;;;;;-2.57;100.00;99521.09;5038474;28;20211;-71
2023/12/02 00:41:17;;;;;;;5.87;2.80;;;;;;;-2.60;100.00;99514.88;5047026;28;20248;-71
2023/12/02 00:43:43;;;;;;;4.70;1.20;;;;;;;-2.62;100.00;99519.97;5047702;28;20226;-71
2023/12/02 00:46:10;;;;;;;2.20;1.53;;;;;;;-2.55;100.00;99531.53;5050027;28;20206;-72
2023/12/02 00:48:36;;;;;;;2.83;1.23;;;;;;;-2.49;100.00;99529.25;5046163;28;20214;-72
2023/12/02 00:51:03;;;;;;;3.80;1.97;;;;;;;-2.52;100.00;99521.31;5061095;28;20217;-72
2023/12/02 00:53:29;;;;;;;3.80;2.27;;;;;;;-2.54;100.00;99520.34;5036289;28;20646;-73
2023/12/02 00:55:57;;;;;;;10.73;4.87;;;;;;;-2.65;100.00;99527.59;5048231;28;20710;-74
2023/12/02 00:58:23;;;;;;;12.43;4.97;;;;;;;-2.72;100.00;99524.59;5050019;28;20293;-73
2023/12/02 01:01:04;;;;;;;9.30;4.93;;;;;;;-2.73;100.00;99531.50;5050642;28;20214;-71
2023/12/02 01:03:30;;;;;;;5.70;2.53;;;;;;;-2.77;100.00;99537.34;5059127;28;20218;-72
2023/12/02 01:05:57;;;;;;;5.27;2.83;;;;;;;-2.85;100.00;99538.59;5047353;28;20294;-71
2023/12/02 01:08:23;;;;;;;4.37;2.17;;;;;;;-2.85;100.00;99530.84;5052546;28;20218;-73
2023/12/02 01:10:50;;;;;;;3.33;1.90;;;;;;;-2.76;100.00;99536.53;5050332;28;20311;-70
2023/12/02 01:13:16;;;;;;;10.70;5.00;;;;;;;-2.61;100.00;99552.84;5053397;28;20218;-73
2023/12/02 01:15:42;;;;;;;5.17;2.70;;;;;;;-2.60;100.00;99546.84;5037248;28;20678;-71
2023/12/02 01:18:09;;;;;;;2.70;1.73;;;;;;;-2.55;100.00;99541.91;5047656;28;20198;-70
2023/12/02 01:20:35;;;;;;;11.73;4.63;;;;;;;-2.43;100.00;99550.28;5045837;28;20616;-71
2023/12/02 01:23:02;;;;;;;5.03;2.47;;;;;;;-2.37;100.00;99553.22;5048356;28;20223;-70
2023/12/02 01:25:28;;;;;;;3.53;1.80;;;;;;;-2.29;100.00;99557.09;5051343;28;20308;-73
2023/12/02 01:27:55;;;;;;;2.37;1.60;;;;;;;-2.24;100.00;99553.00;5051172;28;20209;-70
2023/12/02 01:30:21;;;;;;;3.70;1.87;;;;;;;-2.23;100.00;99553.91;5027432;28;20309;-71
2023/12/02 01:32:48;;;;;;;3.83;2.20;;;;;;;-2.22;100.00;99553.09;5043759;28;20223;-72
2023/12/02 01:35:15;;;;;;;3.13;1.83;;;;;;;-2.23;100.00;99564.28;5046592;28;20258;-69
2023/12/02 01:37:41;;;;;;;3.67;1.57;;;;;;;-2.23;100.00;99567.75;5056647;28;20205;-71
2023/12/02 01:40:11;;;;;;;5.23;2.23;;;;;;;-2.25;100.00;99569.38;5048915;28;20207;-69
2023/12/02 01:42:38;;;;;;;3.20;1.80;;;;;;;-2.28;100.00;99570.94;5039430;28;20251;-71
2023/12/02 01:45:05;;;;;;;10.33;5.20;;;;;;;-2.38;100.00;99581.66;5046573;28;20209;-70
2023/12/02 01:47:31;;;;;;;2.30;1.27;;;;;;;-2.53;100.00;99574.84;5026130;28;20206;-71
2023/12/02 01:50:00;;;;;;;5.53;1.87;;;;;;;-2.54;100.00;99587.75;5052627;28;20289;-71
2023/12/02 01:52:27;;;;;;;4.20;1.83;;;;;;;-2.58;100.00;99594.47;5049509;28;20636;-69
2023/12/02 01:54:54;;;;;;;3.27;1.67;;;;;;;-2.64;100.00;99593.25;5048132;28;20212;-70
2023/12/02 01:57:21;;;;;;;7.83;2.23;;;;;;;-2.75;100.00;99597.88;5026269;28;20213;-70
2023/12/02 01:59:53;;;;;;;4.40;1.60;;;;;;;-2.74;100.00;99598.78;5032714;28;20670;-71
2023/12/02 02:02:20;;;;;;;5.43;2.00;;;;;;;-2.80;100.00;99599.34;5033982;28;20253;-72
2023/12/02 02:04:48;;;;;;;4.70;2.10;;;;;;;-2.89;100.00;99602.31;5047631;28;20225;-70
2023/12/02 02:07:14;;;;;;;2.67;1.60;;;;;;;-2.97;100.00;99603.63;5047138;28;20230;-70
2023/12/02 02:09:48;;;;;;;4.10;1.70;;;;;;;-2.89;100.00;99602.31;5047147;28;20211;-70
2023/12/02 02:12:16;;;;;;;3.13;1.80;;;;;;;-2.93;100.00;99600.38;5049534;28;20218;-71
2023/12/02 02:14:43;;;;;;;2.43;1.70;;;;;;;-2.97;100.00;99600.13;5049360;28;20466;-69
2023/12/02 02:17:09;;;;;;;3.97;2.27;;;;;;;-3.04;100.00;99606.69;5047362;28;20464;-68
2023/12/02 02:19:35;;;;;;;3.07;1.43;;;;;;;-3.07;100.00;99601.34;5028278;28;20489;-70
2023/12/02 02:22:03;;;;;;;3.13;2.10;;;;;;;-3.10;100.00;99605.47;5052511;28;20506;-71
2023/12/02 02:24:30;;;;;;;4.03;1.73;;;;;;;-3.16;100.00;99603.44;5045310;28;20289;-70
2023/12/02 02:26:56;;;;;;;3.80;1.40;;;;;;;-3.19;100.00;99604.16;5049649;28;20207;-71
2023/12/02 02:29:23;;;;;;;3.70;1.77;;;;;;;-3.05;100.00;99599.72;5052545;28;20479;-70
2023/12/02 02:31:49;;;;;;;2.37;2.03;;;;;;;-3.09;100.00;99600.38;5031391;28;20922;-69
2023/12/02 02:34:16;;;;;;;5.70;3.50;;;;;;;-3.11;100.00;99595.91;5030353;28;20548;-70
2023/12/02 02:36:42;;;;;;;4.70;1.80;;;;;;;-3.22;100.00;99592.72;5029612;28;20839;-68
2023/12/02 02:39:10;;;;;;;6.23;3.20;;;;;;;-3.27;100.00;99583.81;5044924;28;20464;-68
2023/12/02 02:41:37;;;;;;;2.33;1.90;;;;;;;-3.33;100.00;99583.50;5056591;28;20540;-70
2023/12/02 02:44:03;;;;;;;1.43;1.27;;;;;;;-3.33;100.00;99588.66;5033940;28;20821;-69
2023/12/02 02:46:30;;;;;;;5.47;1.97;;;;;;;-3.49;100.00;99594.72;5048366;28;20466;-70
2023/12/02 02:48:57;;;;;;;2.50;1.77;;;;;;;-3.66;100.00;99592.84;5038131;28;20457;-69
2023/12/02 02:51:23;;;;;;;3.07;1.90;;;;;;;-3.71;100.00;99596.88;5052726;28;20480;-70
2023/12/02 02:53:50;;;;;;;2.80;1.40;;;;;;;-3.76;100.00;99598.31;5050224;28;21000;-70
2023/12/02 02:56:16;;;;;;;3.30;1.70;;;;;;;-3.72;100.00;99597.69;5051509;28;20456;-69
2023/12/02 02:58:42;;;;;;;5.00;1.80;;;;;;;-3.59;100.00;99601.06;5053662;28;20198;-70
2023/12/02 03:01:09;;;;;;;2.10;1.70;;;;;;;-3.50;100.00;99599.00;5049731;28;20572;-71
2023/12/02 03:03:35;;;;;;;1.93;1.57;;;;;;;-3.58;100.00;99604.56;5049880;28;20487;-69
2023/12/02 03:06:02;;;;;;;5.60;2.17;;;;;;;-3.67;100.00;99598.84;5050258;28;20238;-69
2023/12/02 03:08:28;;;;;;;4.80;1.53;;;;;;;-3.78;100.00;99604.28;5053001;28;20278;-70
2023/12/02 03:10:54;;;;;;;2.80;1.60;;;;;;;-3.78;100.00;99609.47;5055233;28;20479;-71
2023/12/02 03:13:21;;;;;;;5.87;3.37;;;;;;;-3.69;100.00;99603.91;5054679;28;20218;-70
2023/12/02 03:15:47;;;;;;;8.73;4.60;;;;;;;-3.62;100.00;99607.75;5057193;28;20461;-70
2023/12/02 03:18:14;;;;;;;5.37;3.70;;;;;;;-3.54;100.00;99609.09;5036839;28;20478;-69
2023/12/02 03:20:40;;;;;;;2.23;1.47;;;;;;;-3.43;100.00;99615.75;5043691;28;20460;-69
2023/12/02 03:23:07;;;;;;;4.37;1.67;;;;;;;-3.34;100.00;99616.25;5055042;28;20557;-70
2023/12/02 03:25:33;;;;;;;5.77;1.90;;;;;;;-3.28;100.00;99616.59;5051507;28;20998;-71
2023/12/02 03:28:00;;;;;;;1.93;1.43;;;;;;;-3.25;100.00;99613.28;5047767;28;20285;-68
2023/12/02 03:30:26;;;;;;;6.63;3.53;;;;;;;-3.31;100.00;99621.59;5047777;28;20846;-70
2023/12/02 03:32:53;;;;;;;6.70;3.73;;;;;;;-3.53;100.00;99616.94;5050225;28;20286;-70
2023/12/02 03:35:20;;;;;;;7.20;3.33;;;;;;;-3.43;100.00;99627.78;5046093;28;20453;-71
2023/12/02 03:37:46;;;;;;;7.67;3.47;;;;;;;-3.37;100.00;99633.31;5050450;28;20488;-70
2023/12/02 03:40:13;;;;;;;5.07;1.20;;;;;;;-3.28;100.00;99637.28;5047112;28;20643;-69
2023/12/02 03:42:39;;;;;;;2.60;1.40;;;;;;;-3.27;100.00;99627.81;5046484;28;20218;-70
2023/12/02 03:45:06;;;;;;;2.90;1.47;;;;;;;-3.03;100.00;99636.97;5029410;28;20210;-71
2023/12/02 03:47:33;;;;;;;2.00;1.07;;;;;;;-3.02;100.00;99633.56;5024145;28;20889;-68
2023/12/02 03:50:00;;;;;;;1.73;1.43;;;;;;;-2.89;100.00;99636.00;5048822;28;20960;-71
2023/12/02 03:52:26;;;;;;;1.73;1.20;;;;;;;-2.69;100.00;99642.25;5049718;28;20218;-71
2023/12/02 03:54:52;;;;;;;2.03;1.37;;;;;;;-2.64;100.00;99637.31;5049844;28;20275;-70
2023/12/02 03:57:19;;;;;;;1.83;1.20;;;;;;;-2.50;100.00;99638.94;5050619;28;20437;-70
2023/12/02 03:59:46;;;;;;;2.13;1.60;;;;;;;-2.49;100.00;99648.47;5058861;28;20213;-69
2023/12/02 04:02:12;;;;;;;2.60;1.40;;;;;;;-2.39;100.00;99652.47;5047027;28;20292;-70
2023/12/02 04:04:38;;;;;;;6.10;2.63;;;;;;;-2.36;100.00;99663.91;5032863;28;20203;-70
2023/12/02 04:07:05;;;;;;;1.23;1.10;;;;;;;-2.32;100.00;99658.06;5052995;28;20442;-70
2023/12/02 04:09:32;;;;;;;4.40;1.60;;;;;;;-2.28;100.00;99661.69;5045149;28;20206;-70
2023/12/02 04:11:58;;;;;;;3.30;1.43;;;;;;;-2.26;100.00;99657.47;5030744;28;20231;-71
2023/12/02 04:14:25;;;;;;;0.70;0.70;;;;;;;-2.15;100.00;99658.91;5041495;28;20272;-70
2023/12/02 04:16:51;;;;;;;3.47;2.57;;;;;;;-2.14;100.00;99668.47;5055570;28;20228;-70
2023/12/02 04:19:18;;;;;;;6.47;3.17;;;;;;;-2.08;100.00;99673.97;5040576;28;20734;-70
2023/12/02 04:21:45;;;;;;;1.77;1.30;;;;;;;-2.05;100.00;99668.94;5054865;28;20496;-70
2023/12/02 04:24:12;;;;;;;2.83;1.40;;;;;;;-2.04;100.00;99688.88;5038123;28;20269;-70
2023/12/02 04:26:41;;;;;;;1.97;1.47;;;;;;;-2.04;100.00;99690.59;5043710;28;20206;-70
2023/12/02 04:29:07;;;;;;;1.30;1.20;;;;;;;-1.99;100.00;99686.56;5047756;28;20206;-70
2023/12/02 04:31:33;;;;;;;3.20;1.63;;;;;;;-2.01;100.00;99680.38;5049616;28;20222;-71
2023/12/02 04:34:00;;;;;;;1.90;1.43;;;;;;;-1.97;100.00;99683.22;5047668;28;20658;-70
2023/12/02 04:36:27;;;;;;;2.17;1.47;;;;;;;-1.95;100.00;99691.09;5047963;28;20266;-71
2023/12/02 04:38:53;;;;;;;2.50;1.57;;;;;;;-1.96;100.00;99687.59;5050634;28;20199;-71
2023/12/02 04:41:20;;;;;;;6.00;3.47;;;;;;;-1.97;100.00;99688.41;5054676;28;21517;-71
2023/12/02 04:43:46;;;;;;;6.03;3.67;;;;;;;-1.95;100.00;99685.91;5045202;28;20219;-71
2023/12/02 04:46:12;;;;;;;5.20;3.33;;;;;;;-1.95;100.00;99688.50;5052640;28;20293;-70
2023/12/02 04:48:39;;;;;;;6.63;3.80;;;;;;;-1.90;100.00;99690.50;5045883;28;20205;-70
2023/12/02 04:51:06;;;;;;;5.77;3.40;;;;;;;-1.92;100.00;99686.06;5046162;28;20229;-70
2023/12/02 04:53:33;;;;;;;2.40;1.47;;;;;;;-1.91;100.00;99687.81;5042756;28;20222;-71
2023/12/02 04:55:59;;;;;;;4.23;1.47;;;;;;;-1.87;100.00;99696.66;5049777;28;20204;-69
2023/12/02 04:58:26;;;;;;;4.63;3.17;;;;;;;-1.85;100.00;99692.44;5047587;28;20203;-71
2023/12/02 05:00:53;;;;;;;3.00;1.43;;;;;;;-1.83;100.00;99690.81;5045195;28;20578;-70
2023/12/02 05:03:19;;;;;;;3.93;1.27;;;;;;;-1.92;100.00;99696.44;5043578;28;20276;-69
2023/12/02 05:05:46;;;;;;;3.33;1.50;;;;;;;-1.95;100.00;99707.53;5044674;28;20280;-71
2023/12/02 05:08:13;;;;;;;2.30;1.60;;;;;;;-1.98;100.00;99701.31;5048555;28;20195;-69
2023/12/02 05:10:39;;;;;;;1.17;0.93;;;;;;;-1.97;100.00;99698.78;5042274;28;20655;-70
2023/12/02 05:13:08;;;;;;;1.60;1.33;;;;;;;-1.93;100.00;99711.09;5045183;28;20309;-69
2023/12/02 05:15:34;;;;;;;1.03;1.03;;;;;;;-1.91;100.00;99706.88;5045794;28;20230;-71
2023/12/02 05:18:00;;;;;;;1.43;1.00;;;;;;;-1.93;100.00;99705.03;5023964;28;20203;-72
2023/12/02 05:20:27;;;;;;;2.00;1.10;;;;;;;-1.94;100.00;99717.09;5050716;28;20199;-70
2023/12/02 05:22:53;;;;;;;1.43;1.17;;;;;;;-1.91;100.00;99725.03;5052929;28;20302;-70
2023/12/02 05:25:20;;;;;;;4.47;3.10;;;;;;;-1.91;100.00;99729.34;5046417;28;20654;-71
2023/12/02 05:27:46;;;;;;;3.23;1.60;;;;;;;-1.88;100.00;99739.00;5045674;28;20199;-71
2023/12/02 05:30:13;;;;;;;3.37;1.30;;;;;;;-1.92;100.00;99738.84;5025430;28;20590;-71
2023/12/02 05:32:40;;;;;;;1.17;1.07;;;;;;;-1.91;100.00;99742.31;5039359;28;20218;-70
2023/12/02 05:35:08;;;;;;;2.00;1.37;;;;;;;-1.92;100.00;99749.22;5036654;28;20675;-72
2023/12/02 05:37:35;;;;;;;1.63;1.00;;;;;;;-1.88;100.00;99763.22;5055410;28;20305;-70
2023/12/02 05:40:03;;;;;;;2.20;1.10;;;;;;;-1.89;100.00;99766.63;5030571;28;20200;-71
2023/12/02 05:44:55;;;;;;;2.10;1.37;;;;;;;-1.96;100.00;99774.91;5069774;22;20550;-74
2023/12/02 05:47:21;;;;;;;2.77;1.20;;;;;;;-1.93;100.00;99780.25;5040418;28;20203;-74
2023/12/02 05:49:47;;;;;;;1.50;1.03;;;;;;;-1.97;100.00;99788.69;5028126;28;20198;-74
2023/12/02 05:52:14;;;;;;;4.00;1.93;;;;;;;-1.98;100.00;99794.69;5047126;28;20846;-76
2023/12/02 05:54:40;;;;;;;2.00;1.47;;;;;;;-1.95;100.00;99806.13;5034463;28;20379;-76
2023/12/02 05:57:07;;;;;;;2.30;1.33;;;;;;;-2.03;100.00;99791.84;5032171;28;20341;-75
2023/12/02 05:59:34;;;;;;;2.33;1.20;;;;;;;-1.93;100.00;99798.44;5034246;28;20269;-76
2023/12/02 06:02:00;;;;;;;2.03;1.63;;;;;;;-1.96;100.00;99806.94;5026966;28;20199;-76
2023/12/02 06:04:26;;;;;;;5.50;2.83;;;;;;;-1.95;100.00;99806.13;5015808;28;20219;-76
2023/12/02 06:06:53;;;;;;;0.87;0.87;;;;;;;-1.91;100.00;99813.25;5032721;28;20699;-76
2023/12/02 06:09:19;;;;;;;1.67;1.20;;;;;;;-1.92;100.00;99798.50;5033695;28;20727;-78
2023/12/02 06:11:46;;;;;;;1.23;1.00;;;;;;;-1.88;100.00;99806.44;5026396;28;20310;-76
2023/12/02 06:14:12;;;;;;;0.50;0.50;;;;;;;-1.87;100.00;99811.72;5015116;28;20226;-75
2023/12/02 06:16:38;;;;;;;4.37;1.73;;;;;;;-1.91;100.00;99812.38;5012257;28;20200;-76
2023/12/02 06:19:05;;;;;;;1.10;1.00;;;;;;;-1.89;100.00;99815.94;5029585;28;20302;-75
2023/12/02 06:21:32;;;;;;;1.10;1.00;;;;;;;-1.94;100.00;99815.69;5026254;28;20204;-75
2023/12/02 06:23:58;;;;;;;2.50;1.30;;;;;;;-1.92;100.00;99819.25;5016878;28;20238;-75
2023/12/02 06:26:25;;;;;;;1.53;1.13;;;;;;;-1.95;100.00;99818.22;5033915;28;20200;-75
2023/12/02 06:28:51;;;;;;;1.20;1.03;;;;;;;-1.96;100.00;99821.63;5028004;28;20811;-75
2023/12/02 06:31:17;;;;;;;0.97;0.87;;;;;;;-1.95;100.00;99829.47;5023483;28;20200;-76
2023/12/02 06:33:44;;;;;;;1.47;0.87;;;;;;;-1.96;100.00;99835.47;5019587;28;20223;-75
2023/12/02 06:36:11;;;;;;;1.20;1.10;;;;;;;-1.99;100.00;99829.25;5031585;28;20573;-76
2023/12/02 06:38:37;;;;;;;1.17;0.80;;;;;;;-1.95;100.00;99833.78;5037537;28;20533;-75
2023/12/02 06:41:04;;;;;;;1.13;1.03;;;;;;;-1.95;100.00;99846.75;5011144;28;20262;-75
2023/12/02 06:43:31;;;;;;;2.07;1.43;;;;;;;-1.94;100.00;99838.16;5030993;28;20260;-75
2023/12/02 06:45:57;;;;;;;2.47;1.40;;;;;;;-1.99;100.00;99840.50;5032790;28;20653;-76
2023/12/02 06:48:24;;;;;;;1.67;1.27;;;;;;;-1.97;100.00;99838.00;5029243;28;20211;-76
2023/12/02 06:50:50;;;;;;;0.93;0.90;;;;;;;-1.95;100.00;99845.03;5026651;28;20201;-76
2023/12/02 06:53:17;;;;;;;3.43;1.43;;;;;;;-1.90;100.00;99842.69;5010923;28;20727;-75
2023/12/02 06:55:43;;;;;;;0.97;0.60;;;;;;;-1.91;100.00;99840.91;5031287;28;20628;-76
2023/12/02 06:58:10;;;;;;;2.77;1.60;;;;;;;-1.94;100.00;99852.03;5029571;28;20739;-75
2023/12/02 07:00:36;;;;;;;2.93;1.57;;;;;;;-1.94;100.00;99853.72;5034224;28;20568;-76
2023/12/02 07:03:02;;;;;;;1.37;1.27;;;;;;;-1.93;100.00;99861.59;5028885;28;20607;-77
2023/12/02 07:05:29;;;;;;;2.60;1.20;;;;;;;-1.94;100.00;99871.88;5028082;28;20204;-76
2023/12/02 07:07:56;;;;;;;1.63;1.40;;;;;;;-1.91;100.00;99874.63;5027494;28;20203;-76
2023/12/02 07:10:22;;;;;;;2.50;1.60;;;;;;;-1.92;100.00;99886.72;5024276;28;20198;-76
2023/12/02 07:12:49;;;;;;;5.17;1.33;;;;;;;-1.95;100.00;99886.56;5012775;28;20219;-76
2023/12/02 07:15:15;;;;;;;0.90;0.90;;;;;;;-1.96;100.00;99897.75;5028030;28;20202;-76
2023/12/02 07:17:42;;;;;;;1.57;1.47;;;;;;;-2.01;100.00;99900.88;5036765;28;20454;-76
2023/12/02 07:20:08;;;;;;;2.10;1.53;;;;;;;-2.06;100.00;99898.03;5030227;28;20752;-76
2023/12/02 07:22:36;;;;;;;1.33;1.17;;;;;;;-2.03;100.00;99916.34;5022982;28;20829;-76
2023/12/02 07:25:03;;;;;;;1.93;1.23;;;;;;;-2.04;100.00;99924.94;5014737;28;20283;-76
2023/12/02 07:27:29;;;;;;;3.10;1.53;;;;;;;-2.05;100.00;99917.97;5015931;28;20206;-76
2023/12/02 07:29:55;;;;;;;3.70;1.30;;;;;;;-2.10;100.00;99919.41;5029999;28;20199;-75
2023/12/02 07:32:25;;;;;;;2.27;1.40;;;;;;;-2.07;100.00;99926.47;5016634;28;20233;-76
2023/12/02 07:34:51;;;;;;;4.43;2.73;;;;;;;-2.05;100.00;99917.06;5018848;28;20229;-76
2023/12/02 07:37:18;;;;;;;5.97;3.10;;;;;;;-2.05;100.00;99932.66;5026723;28;20296;-76
2023/12/02 07:39:44;;;;;;;6.27;2.97;;;;;;;-2.10;100.00;99924.59;5025805;28;20214;-76
2023/12/02 07:42:11;;;;;;;5.33;2.60;;;;;;;-2.11;100.00;99935.78;5030910;28;20462;-75
2023/12/02 07:44:37;;;;;;;4.57;2.80;;;;;;;-2.12;100.00;99935.72;5019150;28;20478;-75
2023/12/02 07:47:04;;;;;;;4.83;2.80;;;;;;;-2.14;100.00;99933.03;5025380;28;20205;-76
2023/12/02 07:49:30;;;;;;;4.67;3.10;;;;;;;-2.12;100.00;99944.38;5015213;28;20671;-76
2023/12/02 07:51:57;;;;;;;0.67;0.67;;;;;;;-2.07;100.00;99937.75;5009619;28;20274;-75
2023/12/02 07:54:23;;;;;;;1.43;0.93;;;;;;;-2.10;100.00;99934.09;5030476;28;20470;-75
2023/12/02 07:56:49;;;;;;;2.03;1.60;;;;;;;-2.12;100.00;99944.38;5032137;28;20967;-75
2023/12/02 07:59:16;;;;;;;0.70;0.70;;;;;;;-2.09;100.00;99946.25;5008657;28;20461;-75
2023/12/02 08:01:42;;;;;;;5.77;1.50;;;;;;;-2.09;100.00;99947.16;5029571;28;20561;-76
2023/12/02 08:04:09;;;;;;;2.13;1.40;;;;;;;-2.10;100.00;99947.97;5014588;28;20255;-75
2023/12/02 08:06:36;;;;;;;0.67;0.67;;;;;;;-2.07;100.00;99958.50;5028688;28;20207;-75
2023/12/02 08:09:03;;;;;;;4.00;1.13;;;;;;;-2.08;100.00;99959.31;5022409;28;20260;-75
2023/12/02 08:11:29;;;;;;;1.40;0.83;;;;;;;-2.06;100.00;99954.19;5028959;28;20451;-75
2023/12/02 08:13:55;;;;;;;1.77;1.17;;;;;;;-2.12;100.00;99962.53;5026701;28;20860;-75
2023/12/02 08:16:22;;;;;;;4.30;3.00;;;;;;;-2.12;100.00;99974.63;5010944;28;20862;-75
2023/12/02 08:18:48;;;;;;;3.23;1.07;;;;;;;-2.15;100.00;99964.06;5024947;28;20450;-75
2023/12/02 08:21:15;;;;;;;0.33;0.33;;;;;;;-2.13;100.00;99976.31;5027577;28;20455;-75
2023/12/02 08:23:41;;;;;;;2.67;1.47;;;;;;;-2.13;100.00;99970.25;5025229;28;20241;-76
2023/12/02 08:26:07;;;;;;;2.63;1.50;;;;;;;-2.12;100.00;99972.03;5025080;28;20889;-75
2023/12/02 08:28:34;;;;;;;2.03;1.23;;;;;;;-2.08;100.00;99980.06;5027758;28;20234;-75
2023/12/02 08:31:00;;;;;;;2.67;1.47;;;;;;;-2.09;100.00;99978.28;5025503;28;20486;-75
2023/12/02 08:33:27;;;;;;;1.37;1.27;;;;;;;-2.02;100.00;99982.09;5030832;28;20477;-75
2023/12/02 08:35:53;;;;;;;1.60;1.30;;;;;;;-2.03;100.00;99977.72;5028029;28;20517;-76
2023/12/02 08:38:20;;;;;;;1.27;0.90;;;;;;;-1.99;100.00;99992.69;5026497;28;20230;-75
2023/12/02 08:40:49;;;;;;;2.83;1.37;;;;;;;-1.98;100.00;99981.50;5028152;28;20283;-75
2023/12/02 08:43:15;;;;;;;3.23;1.47;;;;;;;-1.97;100.00;99989.38;5032971;28;20223;-75
2023/12/02 08:45:42;;;;;;;2.80;1.37;;;;;;;-1.92;100.00;99994.81;5019321;28;20561;-75
2023/12/02 08:48:08;;;;;;;1.77;1.33;;;;;;;-1.94;100.00;100006.81;5036946;28;20869;-74
2023/12/02 08:50:34;;;;;;;1.67;1.40;;;;;;;-1.94;100.00;100007.69;5036801;28;20235;-75
2023/12/02 08:53:01;;;;;;;3.10;2.00;;;;;;;-1.89;100.00;100002.75;5029324;28;20311;-75
2023/12/02 08:55:27;;;;;;;7.17;1.87;;;;;;;-1.80;100.00;100012.75;5039320;28;20219;-75
2023/12/02 08:57:54;;;;;;;1.43;1.33;;;;;;;-1.80;100.00;100007.56;5031881;28;20233;-75
2023/12/02 09:00:21;;;;;;;2.50;1.53;;;;;;;-1.79;100.00;100005.06;5038607;28;20604;-74
2023/12/02 09:02:47;;;;;;;2.17;1.33;;;;;;;-1.79;100.00;100014.53;5030810;28;20218;-76
2023/12/02 09:05:14;;;;;;;8.83;1.70;;;;;;;-1.74;100.00;100010.50;5030113;28;20195;-74
2023/12/02 09:07:40;;;;;;;3.87;1.70;;;;;;;-1.63;100.00;100024.97;5031484;28;20202;-74
2023/12/02 09:10:08;;;;;;;3.27;2.00;;;;;;;-1.63;100.00;100017.16;5039540;28;20199;-74
2023/12/02 09:12:35;;;;;;;4.97;1.33;;;;;;;-1.62;100.00;100021.56;5024366;28;20219;-73
2023/12/02 09:15:08;;;;;;;3.67;1.60;;;;;;;-1.62;100.00;100016.34;5041517;28;20285;-74
2023/12/02 09:18:00;;;;;;;7.27;3.97;;;;;;;-1.46;100.00;100020.72;5021042;28;20293;-74
2023/12/02 09:20:38;;;;;;;6.00;4.10;;;;;;;-1.40;100.00;100023.63;5035409;28;20276;-73
2023/12/02 09:23:06;;;;;;;6.47;4.00;;;;;;;-1.28;100.00;100022.59;5035086;28;20310;-73
2023/12/02 09:25:38;;;;;;;8.57;3.47;;;;;;;-1.27;100.00;100019.19;5010429;28;20200;-73
2023/12/02 09:28:09;;;;;;;8.07;4.23;;;;;;;-1.37;100.00;100029.00;5022773;28;20206;-72
2023/12/02 09:30:48;;;;;;;3.40;1.73;;;;;;;-1.35;100.00;100024.78;5016150;28;20207;-73
2023/12/02 09:33:32;;;;;;;5.43;1.73;;;;;;;-1.26;100.00;100036.56;5032428;28;20222;-73
2023/12/02 09:36:01;;;;;;;3.73;2.10;;;;;;;-1.29;100.00;100041.59;5019556;28;20737;-72
2023/12/02 09:38:28;;;;;;;1.93;1.70;;;;;;;-1.34;100.00;100048.25;5018600;28;20195;-71
2023/12/02 09:41:16;;;;;;;2.87;1.57;;;;;;;-1.26;100.00;100053.84;5035970;28;20199;-71
2023/12/02 09:44:09;;;;;;;7.60;4.07;;;;;;;-1.38;100.00;100056.69;5034531;28;20246;-71
2023/12/02 09:46:42;;;;;;;7.70;4.20;;;;;;;-1.47;100.00;100056.19;5021840;28;20210;-71
2023/12/02 09:49:46;;;;;;;1.90;1.30;;;;;;;-1.49;100.00;100069.88;4996024;28;20585;-72
2023/12/02 09:52:24;;;;;;;6.07;3.73;;;;;;;-1.64;100.00;100060.41;5029162;28;20652;-71
2023/12/02 09:55:14;;;;;;;1.17;1.10;;;;;;;-1.68;100.00;100070.53;5035750;28;20219;-71
2023/12/02 09:58:01;;;;;;;2.03;1.20;;;;;;;-1.58;100.00;100072.88;5032748;28;20239;-71
2023/12/02 10:00:50;;;;;;;4.03;2.07;;;;;;;-1.53;100.00;100067.94;5029774;28;20206;-71
2023/12/02 10:03:48;;;;;;;4.47;1.63;;;;;;;-1.71;100.00;100076.44;5016180;28;20219;-71
2023/12/02 10:06:45;;;;;;;3.30;1.33;;;;;;;-1.71;100.00;100083.34;5030588;28;20203;-71
2023/12/02 10:09:14;;;;;;;2.60;1.27;;;;;;;-1.82;100.00;100074.97;5032413;28;20211;-71
2023/12/02 10:11:58;;;;;;;2.47;1.73;;;;;;;-1.64;100.00;100080.28;5036230;28;20512;-71
2023/12/02 10:14:25;;;;;;;3.70;1.80;;;;;;;-1.65;100.00;100084.59;5027337;28;20880;-71
2023/12/02 10:16:53;;;;;;;1.00;1.00;;;;;;;-1.55;100.00;100088.63;5034297;28;20282;-71
2023/12/02 10:19:41;;;;;;;2.27;1.50;;;;;;;-1.55;100.00;100088.63;5015748;28;20468;-71
2023/12/02 10:22:10;;;;;;;2.93;1.80;;;;;;;-1.48;100.00;100095.94;5035350;28;20244;-71
2023/12/02 10:24:50;;;;;;;2.97;1.37;;;;;;;-1.39;100.00;100092.94;5032947;28;20306;-71
2023/12/02 10:27:17;;;;;;;2.70;1.87;;;;;;;-1.42;100.00;100085.88;5029993;28;20233;-71
2023/12/02 10:29:59;;;;;;;6.27;4.03;;;;;;;-1.48;100.00;100090.75;5033324;28;20203;-71
2023/12/02 10:32:25;;;;;;;8.43;4.63;;;;;;;-1.36;100.00;100088.81;5031756;28;20206;-71
2023/12/02 10:34:52;;;;;;;8.27;3.93;;;;;;;-1.35;100.00;100081.91;5013823;28;20223;-71
2023/12/02 10:37:22;;;;;;;2.37;1.70;;;;;;;-1.35;100.00;100094.91;4998048;28;20199;-71
2023/12/02 10:39:52;;;;;;;2.13;1.60;;;;;;;-1.46;100.00;100090.81;5041520;28;20203;-71
2023/12/02 10:42:40;;;;;;;3.60;1.77;;;;;;;-1.42;100.00;100087.59;5031862;28;20202;-71
2023/12/02 10:45:08;;;;;;;1.90;1.30;;;;;;;-1.47;100.00;100099.44;5029739;28;20286;-71
2023/12/02 10:47:36;;;;;;;2.50;1.37;;;;;;;-1.56;100.00;100098.91;5036886;28;20282;-71
2023/12/02 10:50:04;;;;;;;7.97;4.20;;;;;;;-1.76;100.00;100103.84;5023529;28;20210;-71
2023/12/02 10:52:34;;;;;;;7.70;4.60;;;;;;;-1.76;100.00;100106.44;5023435;28;20203;-71
2023/12/02 10:55:05;;;;;;;6.90;4.10;;;;;;;-1.66;100.00;100113.06;5008850;28;20457;-71
2023/12/02 10:57:32;;;;;;;7.07;4.40;;;;;;;-1.70;100.00;100109.38;5005988;28;20287;-71
2023/12/02 11:00:06;;;;;;;2.63;1.47;;;;;;;-1.62;100.00;100102.03;5023613;28;20272;-71
2023/12/02 11:02:46;;;;;;;2.93;2.20;;;;;;;-1.74;100.00;100111.72;5031894;28;20261;-71
2023/12/02 11:05:20;;;;;;;9.80;4.63;;;;;;;-1.69;100.00;100110.28;5029418;28;20329;-71
2023/12/02 11:07:51;;;;;;;6.77;4.13;;;;;;;-1.62;100.00;100107.22;5029451;28;20638;-71
2023/12/02 11:10:28;;;;;;;1.50;1.40;;;;;;;-1.58;100.00;100104.91;5033627;28;20552;-71
2023/12/02 11:13:03;;;;;;;2.90;1.27;;;;;;;-1.64;100.00;100098.44;5032807;28;20227;-71
2023/12/02 11:15:40;;;;;;;4.53;1.30;;;;;;;-1.58;100.00;100106.63;5032623;28;20206;-71
2023/12/02 11:18:13;;;;;;;5.77;1.97;;;;;;;-1.81;100.00;100107.00;5030664;28;20663;-71
2023/12/02 11:20:51;;;;;;;3.90;1.40;;;;;;;-1.74;100.00;100107.44;5031670;28;20195;-71
2023/12/02 11:23:40;;;;;;;3.20;1.80;;;;;;;-1.64;100.00;100114.91;5030197;28;20219;-71
2023/12/02 11:26:52;;;;;;;3.10;1.67;;;;;;;-1.47;100.00;100126.28;5022676;28;20290;-71
2023/12/02 11:29:55;;;;;;;3.53;1.50;;;;;;;-1.50;100.00;100120.03;4985555;28;20206;-71
2023/12/02 11:32:34;;;;;;;4.30;1.50;;;;;;;-1.56;100.00;100119.69;4981214;28;20314;-71
2023/12/02 11:35:10;;;;;;;10.53;1.63;;;;;;;-1.45;100.00;100123.78;5019414;28;20618;-70